sensor_id;sensor_type;location;lat;lon;timestamp;P1;durP1;ratioP1;P2;durP2;ratioP2
59653;SDS011;66556;52.008;5.432;2023-07-13T00:00:54;6.6;;;1.6;;
59653;SDS011;66556;52.008;5.432;2023-07-13T00:02:30;6.6;;;1.5;;
59653;SDS011;66556;52.008;5.432;2023-07-13T00:04:06;16.5;;;2.7;;
59653;SDS011;66556;52.008;5.432;2023-07-13T00:05:42;5.8;;;1.3;;
59653;SDS011;66556;52.008;5.432;2023-07-13T00:08:54;6.4;;;1.5;;
59653;SDS011;66556;52.008;5.432;2023-07-13T00:10:30;5.6;;;1.2;;
59653;SDS011;66556;52.008;5.432;2023-07-13T00:12:25;5.3;;;1.5;;
59653;SDS011;66556;52.008;5.432;2023-07-13T00:14:04;8.2;;;1.8;;
59653;SDS011;66556;52.008;5.432;2023-07-13T00:17:16;5.8;;;1.3;;
59653;SDS011;66556;52.008;5.432;2023-07-13T00:18:52;5.7;;;1.3;;
59653;SDS011;66556;52.008;5.432;2023-07-13T00:20:28;5.6;;;1.3;;
59653;SDS011;66556;52.008;5.432;2023-07-13T00:23:40;9.1;;;1.4;;
59653;SDS011;66556;52.008;5.432;2023-07-13T00:25:18;6.2;;;1.5;;
59653;SDS011;66556;52.008;5.432;2023-07-13T00:26:55;4.3;;;1.2;;
59653;SDS011;66556;52.008;5.432;2023-07-13T00:30:09;4.2;;;1.6;;
59653;SDS011;66556;52.008;5.432;2023-07-13T00:31:46;4.91;;;1.4;;
59653;SDS011;66556;52.008;5.432;2023-07-13T00:33:22;6.4;;;1.4;;
59653;SDS011;66556;52.008;5.432;2023-07-13T00:34:59;4.91;;;1.4;;
59653;SDS011;66556;52.008;5.432;2023-07-13T00:38:11;5.3;;;1.2;;
59653;SDS011;66556;52.008;5.432;2023-07-13T00:39:47;4.1;;;1.2;;
59653;SDS011;66556;52.008;5.432;2023-07-13T00:41:23;5.3;;;1.4;;
59653;SDS011;66556;52.008;5.432;2023-07-13T00:44:35;5.8;;;1.4;;
59653;SDS011;66556;52.008;5.432;2023-07-13T00:46:17;5.7;;;1.5;;
59653;SDS011;66556;52.008;5.432;2023-07-13T00:48:00;6.1;;;1.8;;
59653;SDS011;66556;52.008;5.432;2023-07-13T00:49:36;4.61;;;1.2;;
59653;SDS011;66556;52.008;5.432;2023-07-13T00:52:52;5.3;;;1.3;;
59653;SDS011;66556;52.008;5.432;2023-07-13T00:54:31;5.6;;;1.8;;
59653;SDS011;66556;52.008;5.432;2023-07-13T00:56:15;5.2;;;1.3;;
59653;SDS011;66556;52.008;5.432;2023-07-13T00:59:28;5.6;;;1.4;;
59653;SDS011;66556;52.008;5.432;2023-07-13T01:01:05;7.6;;;1.6;;
59653;SDS011;66556;52.008;5.432;2023-07-13T01:02:41;7.0;;;1.8;;
59653;SDS011;66556;52.008;5.432;2023-07-13T01:04:23;6.1;;;1.5;;
59653;SDS011;66556;52.008;5.432;2023-07-13T01:09:13;5.6;;;1.5;;
59653;SDS011;66556;52.008;5.432;2023-07-13T01:10:51;6.1;;;1.5;;
59653;SDS011;66556;52.008;5.432;2023-07-13T01:14:05;4.61;;;1.5;;
59653;SDS011;66556;52.008;5.432;2023-07-13T01:15:43;5.7;;;1.4;;
59653;SDS011;66556;52.008;5.432;2023-07-13T01:17:20;4.1;;;1.6;;
59653;SDS011;66556;52.008;5.432;2023-07-13T01:18:56;6.3;;;1.7;;
59653;SDS011;66556;52.008;5.432;2023-07-13T01:22:11;6.0;;;1.4;;
59653;SDS011;66556;52.008;5.432;2023-07-13T01:23:50;5.6;;;1.6;;
59653;SDS011;66556;52.008;5.432;2023-07-13T01:25:28;5.6;;;1.2;;
59653;SDS011;66556;52.008;5.432;2023-07-13T01:28:42;6.5;;;1.3;;
59653;SDS011;66556;52.008;5.432;2023-07-13T01:30:19;7.4;;;1.5;;
59653;SDS011;66556;52.008;5.432;2023-07-13T01:31:55;4.8;;;1.2;;
59653;SDS011;66556;52.008;5.432;2023-07-13T01:33:31;7.7;;;1.6;;
59653;SDS011;66556;52.008;5.432;2023-07-13T01:36:43;5.9;;;1.6;;
59653;SDS011;66556;52.008;5.432;2023-07-13T01:38:20;5.3;;;1.3;;
59653;SDS011;66556;52.008;5.432;2023-07-13T01:39:59;6.2;;;1.5;;
59653;SDS011;66556;52.008;5.432;2023-07-13T01:43:11;7.2;;;1.4;;
59653;SDS011;66556;52.008;5.432;2023-07-13T01:44:48;5.4;;;1.2;;
59653;SDS011;66556;52.008;5.432;2023-07-13T01:46:24;5.4;;;1.5;;
59653;SDS011;66556;52.008;5.432;2023-07-13T01:49:36;5.0;;;1.11;;
59653;SDS011;66556;52.008;5.432;2023-07-13T01:51:12;5.8;;;1.5;;
59653;SDS011;66556;52.008;5.432;2023-07-13T01:52:49;5.4;;;1.3;;
59653;SDS011;66556;52.008;5.432;2023-07-13T01:54:25;6.1;;;1.5;;
59653;SDS011;66556;52.008;5.432;2023-07-13T01:57:37;4.8;;;1.3;;
59653;SDS011;66556;52.008;5.432;2023-07-13T01:59:13;6.9;;;1.4;;
59653;SDS011;66556;52.008;5.432;2023-07-13T02:00:49;5.2;;;1.5;;
59653;SDS011;66556;52.008;5.432;2023-07-13T02:04:04;4.0;;;1.2;;
59653;SDS011;66556;52.008;5.432;2023-07-13T02:05:40;6.0;;;1.6;;
59653;SDS011;66556;52.008;5.432;2023-07-13T02:07:16;5.5;;;1.5;;
59653;SDS011;66556;52.008;5.432;2023-07-13T02:10:29;7.3;;;1.5;;
59653;SDS011;66556;52.008;5.432;2023-07-13T02:12:06;7.6;;;1.7;;
59653;SDS011;66556;52.008;5.432;2023-07-13T02:13:42;7.2;;;1.7;;
59653;SDS011;66556;52.008;5.432;2023-07-13T02:16:55;5.4;;;1.5;;
59653;SDS011;66556;52.008;5.432;2023-07-13T02:18:31;7.5;;;2.1;;
59653;SDS011;66556;52.008;5.432;2023-07-13T02:20:07;7.4;;;1.7;;
59653;SDS011;66556;52.008;5.432;2023-07-13T02:21:44;6.4;;;1.7;;
59653;SDS011;66556;52.008;5.432;2023-07-13T02:24:56;9.0;;;1.9;;
59653;SDS011;66556;52.008;5.432;2023-07-13T02:26:33;9.0;;;1.8;;
59653;SDS011;66556;52.008;5.432;2023-07-13T02:28:10;8.6;;;1.8;;
59653;SDS011;66556;52.008;5.432;2023-07-13T02:31:22;9.21;;;1.9;;
59653;SDS011;66556;52.008;5.432;2023-07-13T02:32:58;7.1;;;1.8;;
59653;SDS011;66556;52.008;5.432;2023-07-13T02:34:34;9.81;;;2.0;;
59653;SDS011;66556;52.008;5.432;2023-07-13T02:37:48;8.2;;;1.9;;
59653;SDS011;66556;52.008;5.432;2023-07-13T02:39:25;11.5;;;2.7;;
59653;SDS011;66556;52.008;5.432;2023-07-13T02:41:01;6.5;;;1.9;;
59653;SDS011;66556;52.008;5.432;2023-07-13T02:42:37;11.1;;;2.31;;
59653;SDS011;66556;52.008;5.432;2023-07-13T02:45:50;6.8;;;2.0;;
59653;SDS011;66556;52.008;5.432;2023-07-13T02:47:26;9.31;;;2.31;;
59653;SDS011;66556;52.008;5.432;2023-07-13T02:49:03;7.3;;;1.9;;
59653;SDS011;66556;52.008;5.432;2023-07-13T02:52:16;6.5;;;2.0;;
59653;SDS011;66556;52.008;5.432;2023-07-13T02:53:52;7.7;;;1.9;;
59653;SDS011;66556;52.008;5.432;2023-07-13T02:55:28;9.71;;;1.9;;
59653;SDS011;66556;52.008;5.432;2023-07-13T02:58:41;10.6;;;2.1;;
59653;SDS011;66556;52.008;5.432;2023-07-13T03:00:18;8.0;;;2.0;;
59653;SDS011;66556;52.008;5.432;2023-07-13T03:01:53;9.0;;;2.4;;
59653;SDS011;66556;52.008;5.432;2023-07-13T03:03:30;9.21;;;2.21;;
59653;SDS011;66556;52.008;5.432;2023-07-13T03:06:43;7.7;;;2.0;;
59653;SDS011;66556;52.008;5.432;2023-07-13T03:08:19;9.71;;;2.1;;
59653;SDS011;66556;52.008;5.432;2023-07-13T03:09:55;8.0;;;2.21;;
59653;SDS011;66556;52.008;5.432;2023-07-13T03:13:09;8.6;;;2.5;;
59653;SDS011;66556;52.008;5.432;2023-07-13T03:14:45;8.9;;;2.0;;
59653;SDS011;66556;52.008;5.432;2023-07-13T03:16:21;7.8;;;2.1;;
59653;SDS011;66556;52.008;5.432;2023-07-13T03:19:34;10.3;;;2.0;;
59653;SDS011;66556;52.008;5.432;2023-07-13T03:22:46;8.31;;;2.1;;
59653;SDS011;66556;52.008;5.432;2023-07-13T03:24:23;10.5;;;2.6;;
59653;SDS011;66556;52.008;5.432;2023-07-13T03:27:41;9.9;;;2.5;;
59653;SDS011;66556;52.008;5.432;2023-07-13T03:29:17;7.1;;;2.4;;
59653;SDS011;66556;52.008;5.432;2023-07-13T03:30:58;9.31;;;2.5;;
59653;SDS011;66556;52.008;5.432;2023-07-13T03:34:11;12.7;;;2.4;;
59653;SDS011;66556;52.008;5.432;2023-07-13T03:35:47;7.9;;;2.4;;
59653;SDS011;66556;52.008;5.432;2023-07-13T03:37:24;9.0;;;2.6;;
59653;SDS011;66556;52.008;5.432;2023-07-13T03:39:00;11.0;;;2.31;;
59653;SDS011;66556;52.008;5.432;2023-07-13T03:42:14;9.4;;;2.4;;
59653;SDS011;66556;52.008;5.432;2023-07-13T03:43:50;11.5;;;2.5;;
59653;SDS011;66556;52.008;5.432;2023-07-13T03:45:27;9.71;;;2.6;;
59653;SDS011;66556;52.008;5.432;2023-07-13T03:48:40;9.71;;;2.6;;
59653;SDS011;66556;52.008;5.432;2023-07-13T03:50:16;11.0;;;2.7;;
59653;SDS011;66556;52.008;5.432;2023-07-13T03:51:52;10.1;;;2.5;;
59653;SDS011;66556;52.008;5.432;2023-07-13T03:55:04;11.7;;;2.5;;
59653;SDS011;66556;52.008;5.432;2023-07-13T03:56:41;8.31;;;2.6;;
59653;SDS011;66556;52.008;5.432;2023-07-13T03:58:34;13.6;;;3.1;;
59653;SDS011;66556;52.008;5.432;2023-07-13T04:00:13;9.0;;;2.31;;
59653;SDS011;66556;52.008;5.432;2023-07-13T04:03:26;9.0;;;2.5;;
59653;SDS011;66556;52.008;5.432;2023-07-13T04:05:03;12.9;;;2.8;;
59653;SDS011;66556;52.008;5.432;2023-07-13T04:06:40;12.5;;;3.1;;
59653;SDS011;66556;52.008;5.432;2023-07-13T04:09:52;6.6;;;2.21;;
59653;SDS011;66556;52.008;5.432;2023-07-13T04:11:29;11.9;;;2.8;;
59653;SDS011;66556;52.008;5.432;2023-07-13T04:13:08;8.5;;;2.7;;
59653;SDS011;66556;52.008;5.432;2023-07-13T04:14:44;9.5;;;2.8;;
59653;SDS011;66556;52.008;5.432;2023-07-13T04:17:57;8.5;;;2.7;;
59653;SDS011;66556;52.008;5.432;2023-07-13T04:19:34;12.3;;;3.1;;
59653;SDS011;66556;52.008;5.432;2023-07-13T04:21:10;9.6;;;3.0;;
59653;SDS011;66556;52.008;5.432;2023-07-13T04:24:24;11.0;;;3.1;;
59653;SDS011;66556;52.008;5.432;2023-07-13T04:26:00;10.4;;;2.9;;
59653;SDS011;66556;52.008;5.432;2023-07-13T04:27:36;13.3;;;2.9;;
59653;SDS011;66556;52.008;5.432;2023-07-13T04:29:12;9.9;;;3.0;;
59653;SDS011;66556;52.008;5.432;2023-07-13T04:32:25;9.4;;;3.3;;
59653;SDS011;66556;52.008;5.432;2023-07-13T04:34:02;11.0;;;3.0;;
59653;SDS011;66556;52.008;5.432;2023-07-13T04:35:38;9.4;;;3.0;;
59653;SDS011;66556;52.008;5.432;2023-07-13T04:38:51;11.2;;;3.3;;
59653;SDS011;66556;52.008;5.432;2023-07-13T04:40:27;9.0;;;2.8;;
59653;SDS011;66556;52.008;5.432;2023-07-13T04:42:04;10.4;;;2.8;;
59653;SDS011;66556;52.008;5.432;2023-07-13T04:45:17;9.71;;;3.1;;
59653;SDS011;66556;52.008;5.432;2023-07-13T04:46:53;10.1;;;3.0;;
59653;SDS011;66556;52.008;5.432;2023-07-13T04:48:30;11.3;;;3.3;;
59653;SDS011;66556;52.008;5.432;2023-07-13T04:51:44;8.1;;;3.1;;
59653;SDS011;66556;52.008;5.432;2023-07-13T04:53:20;11.5;;;3.4;;
59653;SDS011;66556;52.008;5.432;2023-07-13T04:54:56;13.4;;;3.6;;
59653;SDS011;66556;52.008;5.432;2023-07-13T04:56:32;15.4;;;3.9;;
59653;SDS011;66556;52.008;5.432;2023-07-13T04:59:45;12.4;;;3.4;;
59653;SDS011;66556;52.008;5.432;2023-07-13T05:01:21;10.6;;;3.4;;
59653;SDS011;66556;52.008;5.432;2023-07-13T05:02:57;11.6;;;3.6;;
59653;SDS011;66556;52.008;5.432;2023-07-13T05:06:10;10.7;;;3.4;;
59653;SDS011;66556;52.008;5.432;2023-07-13T05:07:46;11.2;;;3.6;;
59653;SDS011;66556;52.008;5.432;2023-07-13T05:09:22;13.3;;;3.5;;
59653;SDS011;66556;52.008;5.432;2023-07-13T05:12:36;14.8;;;3.7;;
59653;SDS011;66556;52.008;5.432;2023-07-13T05:14:12;10.6;;;3.4;;
59653;SDS011;66556;52.008;5.432;2023-07-13T05:15:55;11.7;;;3.5;;
59653;SDS011;66556;52.008;5.432;2023-07-13T05:17:32;13.6;;;4.41;;
59653;SDS011;66556;52.008;5.432;2023-07-13T05:20:46;13.1;;;3.9;;
59653;SDS011;66556;52.008;5.432;2023-07-13T05:22:23;15.6;;;4.8;;
59653;SDS011;66556;52.008;5.432;2023-07-13T05:23:59;15.0;;;4.3;;
59653;SDS011;66556;52.008;5.432;2023-07-13T05:27:11;16.11;;;4.41;;
59653;SDS011;66556;52.008;5.432;2023-07-13T05:28:47;15.7;;;4.41;;
59653;SDS011;66556;52.008;5.432;2023-07-13T05:30:23;12.5;;;4.91;;
59653;SDS011;66556;52.008;5.432;2023-07-13T05:32:00;12.4;;;4.5;;
59653;SDS011;66556;52.008;5.432;2023-07-13T05:35:12;13.3;;;4.61;;
59653;SDS011;66556;52.008;5.432;2023-07-13T05:36:48;12.7;;;4.2;;
59653;SDS011;66556;52.008;5.432;2023-07-13T05:38:25;13.1;;;4.7;;
59653;SDS011;66556;52.008;5.432;2023-07-13T05:41:37;14.6;;;5.0;;
59653;SDS011;66556;52.008;5.432;2023-07-13T05:43:14;15.2;;;5.11;;
59653;SDS011;66556;52.008;5.432;2023-07-13T05:44:50;15.6;;;4.91;;
59653;SDS011;66556;52.008;5.432;2023-07-13T05:48:04;16.7;;;5.3;;
59653;SDS011;66556;52.008;5.432;2023-07-13T05:49:40;17.7;;;5.9;;
59653;SDS011;66556;52.008;5.432;2023-07-13T05:51:16;15.8;;;5.8;;
59653;SDS011;66556;52.008;5.432;2023-07-13T05:54:28;15.4;;;5.6;;
59653;SDS011;66556;52.008;5.432;2023-07-13T05:56:04;17.41;;;6.0;;
59653;SDS011;66556;52.008;5.432;2023-07-13T05:57:41;16.2;;;6.1;;
59653;SDS011;66556;52.008;5.432;2023-07-13T05:59:17;15.1;;;5.11;;
59653;SDS011;66556;52.008;5.432;2023-07-13T06:02:36;18.61;;;6.4;;
59653;SDS011;66556;52.008;5.432;2023-07-13T06:04:12;18.7;;;6.8;;
59653;SDS011;66556;52.008;5.432;2023-07-13T06:05:48;20.41;;;6.8;;
59653;SDS011;66556;52.008;5.432;2023-07-13T06:09:01;18.91;;;6.3;;
59653;SDS011;66556;52.008;5.432;2023-07-13T06:12:14;18.0;;;6.7;;
59653;SDS011;66556;52.008;5.432;2023-07-13T06:13:50;17.41;;;6.7;;
59653;SDS011;66556;52.008;5.432;2023-07-13T06:17:03;18.8;;;7.4;;
59653;SDS011;66556;52.008;5.432;2023-07-13T06:18:41;18.3;;;6.9;;
59653;SDS011;66556;52.008;5.432;2023-07-13T06:20:18;19.91;;;8.6;;
59653;SDS011;66556;52.008;5.432;2023-07-13T06:23:30;19.7;;;7.8;;
59653;SDS011;66556;52.008;5.432;2023-07-13T06:25:06;24.7;;;7.9;;
59653;SDS011;66556;52.008;5.432;2023-07-13T06:26:43;18.8;;;7.9;;
59653;SDS011;66556;52.008;5.432;2023-07-13T06:29:55;17.91;;;8.31;;
59653;SDS011;66556;52.008;5.432;2023-07-13T06:31:31;16.8;;;7.2;;
59653;SDS011;66556;52.008;5.432;2023-07-13T06:33:07;22.6;;;9.31;;
59653;SDS011;66556;52.008;5.432;2023-07-13T06:34:43;18.3;;;7.8;;
59653;SDS011;66556;52.008;5.432;2023-07-13T06:37:55;17.41;;;8.1;;
59653;SDS011;66556;52.008;5.432;2023-07-13T06:39:32;19.41;;;8.1;;
59653;SDS011;66556;52.008;5.432;2023-07-13T06:41:09;20.6;;;8.9;;
59653;SDS011;66556;52.008;5.432;2023-07-13T06:44:21;21.5;;;7.7;;
59653;SDS011;66556;52.008;5.432;2023-07-13T06:45:57;20.2;;;8.2;;
59653;SDS011;66556;52.008;5.432;2023-07-13T06:47:34;19.2;;;7.8;;
59653;SDS011;66556;52.008;5.432;2023-07-13T06:50:47;23.7;;;8.71;;
59653;SDS011;66556;52.008;5.432;2023-07-13T06:52:24;21.7;;;8.31;;
59653;SDS011;66556;52.008;5.432;2023-07-13T06:57:14;18.11;;;8.2;;
59653;SDS011;66556;52.008;5.432;2023-07-13T06:58:50;19.11;;;8.9;;
59653;SDS011;66556;52.008;5.432;2023-07-13T07:00:26;19.8;;;8.71;;
59653;SDS011;66556;52.008;5.432;2023-07-13T07:02:03;16.7;;;8.0;;
59653;SDS011;66556;52.008;5.432;2023-07-13T07:05:16;24.9;;;8.71;;
59653;SDS011;66556;52.008;5.432;2023-07-13T07:06:52;19.5;;;9.1;;
59653;SDS011;66556;52.008;5.432;2023-07-13T07:08:28;18.8;;;8.71;;
59653;SDS011;66556;52.008;5.432;2023-07-13T07:11:41;15.2;;;8.2;;
59653;SDS011;66556;52.008;5.432;2023-07-13T07:13:18;23.1;;;8.31;;
59653;SDS011;66556;52.008;5.432;2023-07-13T07:14:54;20.41;;;8.71;;
59653;SDS011;66556;52.008;5.432;2023-07-13T07:18:07;21.3;;;9.4;;
59653;SDS011;66556;52.008;5.432;2023-07-13T07:19:43;20.6;;;9.21;;
59653;SDS011;66556;52.008;5.432;2023-07-13T07:21:19;21.3;;;9.31;;
59653;SDS011;66556;52.008;5.432;2023-07-13T07:22:55;17.7;;;9.1;;
59653;SDS011;66556;52.008;5.432;2023-07-13T07:26:08;20.41;;;8.4;;
59653;SDS011;66556;52.008;5.432;2023-07-13T07:27:44;21.3;;;8.71;;
59653;SDS011;66556;52.008;5.432;2023-07-13T07:29:21;18.8;;;8.71;;
59653;SDS011;66556;52.008;5.432;2023-07-13T07:32:34;20.3;;;8.81;;
59653;SDS011;66556;52.008;5.432;2023-07-13T07:34:10;19.0;;;8.2;;
59653;SDS011;66556;52.008;5.432;2023-07-13T07:35:46;18.5;;;8.5;;
59653;SDS011;66556;52.008;5.432;2023-07-13T07:39:00;18.7;;;8.4;;
59653;SDS011;66556;52.008;5.432;2023-07-13T07:40:36;19.5;;;7.9;;
59653;SDS011;66556;52.008;5.432;2023-07-13T07:42:13;18.3;;;7.7;;
59653;SDS011;66556;52.008;5.432;2023-07-13T07:43:49;18.11;;;7.6;;
59653;SDS011;66556;52.008;5.432;2023-07-13T07:47:02;17.41;;;8.1;;
59653;SDS011;66556;52.008;5.432;2023-07-13T07:48:39;18.61;;;7.5;;
59653;SDS011;66556;52.008;5.432;2023-07-13T07:50:15;23.0;;;7.7;;
59653;SDS011;66556;52.008;5.432;2023-07-13T07:53:28;16.4;;;7.3;;
59653;SDS011;66556;52.008;5.432;2023-07-13T07:55:05;17.61;;;7.2;;
59653;SDS011;66556;52.008;5.432;2023-07-13T07:56:43;14.4;;;7.1;;
59653;SDS011;66556;52.008;5.432;2023-07-13T07:59:56;15.1;;;6.7;;
59653;SDS011;66556;52.008;5.432;2023-07-13T08:01:32;18.2;;;7.3;;
59653;SDS011;66556;52.008;5.432;2023-07-13T08:03:09;20.7;;;7.3;;
59653;SDS011;66556;52.008;5.432;2023-07-13T08:04:46;21.0;;;7.3;;
59653;SDS011;66556;52.008;5.432;2023-07-13T08:08:00;18.11;;;7.3;;
59653;SDS011;66556;52.008;5.432;2023-07-13T08:09:36;17.61;;;6.7;;
59653;SDS011;66556;52.008;5.432;2023-07-13T08:11:12;13.7;;;6.0;;
59653;SDS011;66556;52.008;5.432;2023-07-13T08:14:24;16.5;;;6.9;;
59653;SDS011;66556;52.008;5.432;2023-07-13T08:16:01;14.1;;;6.0;;
59653;SDS011;66556;52.008;5.432;2023-07-13T08:17:40;15.2;;;5.7;;
59653;SDS011;66556;52.008;5.432;2023-07-13T08:20:53;14.2;;;5.7;;
59653;SDS011;66556;52.008;5.432;2023-07-13T08:22:29;16.11;;;5.7;;
59653;SDS011;66556;52.008;5.432;2023-07-13T08:24:06;12.2;;;6.1;;
59653;SDS011;66556;52.008;5.432;2023-07-13T08:25:43;13.3;;;6.2;;
59653;SDS011;66556;52.008;5.432;2023-07-13T08:29:04;11.0;;;4.3;;
59653;SDS011;66556;52.008;5.432;2023-07-13T08:30:40;15.2;;;4.8;;
59653;SDS011;66556;52.008;5.432;2023-07-13T08:32:17;9.31;;;3.9;;
59653;SDS011;66556;52.008;5.432;2023-07-13T08:35:31;10.8;;;3.3;;
59653;SDS011;66556;52.008;5.432;2023-07-13T08:37:08;7.0;;;3.2;;
59653;SDS011;66556;52.008;5.432;2023-07-13T08:38:45;7.7;;;2.8;;
59653;SDS011;66556;52.008;5.432;2023-07-13T08:40:23;10.3;;;3.0;;
59653;SDS011;66556;52.008;5.432;2023-07-13T08:43:48;13.3;;;3.8;;
59653;SDS011;66556;52.008;5.432;2023-07-13T08:45:33;6.9;;;2.31;;
59653;SDS011;66556;52.008;5.432;2023-07-13T08:47:18;5.8;;;2.0;;
59653;SDS011;66556;52.008;5.432;2023-07-13T08:49:01;6.0;;;2.1;;
59653;SDS011;66556;52.008;5.432;2023-07-13T08:52:35;6.1;;;1.8;;
59653;SDS011;66556;52.008;5.432;2023-07-13T08:54:18;5.4;;;2.1;;
59653;SDS011;66556;52.008;5.432;2023-07-13T08:55:59;5.8;;;2.1;;
59653;SDS011;66556;52.008;5.432;2023-07-13T08:57:36;6.2;;;2.4;;
59653;SDS011;66556;52.008;5.432;2023-07-13T08:59:17;6.0;;;2.31;;
59653;SDS011;66556;52.008;5.432;2023-07-13T09:02:45;7.5;;;2.31;;
59653;SDS011;66556;52.008;5.432;2023-07-13T09:06:10;6.7;;;2.0;;
59653;SDS011;66556;52.008;5.432;2023-07-13T09:07:55;6.6;;;2.5;;
59653;SDS011;66556;52.008;5.432;2023-07-13T09:09:49;6.6;;;2.6;;
59653;SDS011;66556;52.008;5.432;2023-07-13T09:11:46;7.7;;;3.0;;
59653;SDS011;66556;52.008;5.432;2023-07-13T09:15:24;7.2;;;2.6;;
59653;SDS011;66556;52.008;5.432;2023-07-13T09:17:04;8.5;;;2.9;;
59653;SDS011;66556;52.008;5.432;2023-07-13T09:18:48;8.2;;;2.7;;
59653;SDS011;66556;52.008;5.432;2023-07-13T09:20:28;7.0;;;1.9;;
59653;SDS011;66556;52.008;5.432;2023-07-13T09:22:13;3.5;;;1.6;;
59653;SDS011;66556;52.008;5.432;2023-07-13T09:25:59;4.5;;;1.6;;
59653;SDS011;66556;52.008;5.432;2023-07-13T09:27:43;8.5;;;1.9;;
59653;SDS011;66556;52.008;5.432;2023-07-13T09:29:27;7.3;;;2.0;;
59653;SDS011;66556;52.008;5.432;2023-07-13T09:31:06;6.5;;;1.8;;
59653;SDS011;66556;52.008;5.432;2023-07-13T09:32:49;5.3;;;2.1;;
59653;SDS011;66556;52.008;5.432;2023-07-13T09:36:15;7.2;;;2.0;;
59653;SDS011;66556;52.008;5.432;2023-07-13T09:38:01;6.1;;;1.9;;
59653;SDS011;66556;52.008;5.432;2023-07-13T09:39:46;6.7;;;2.21;;
59653;SDS011;66556;52.008;5.432;2023-07-13T09:41:26;7.2;;;2.4;;
59653;SDS011;66556;52.008;5.432;2023-07-13T09:43:10;7.7;;;2.8;;
59653;SDS011;66556;52.008;5.432;2023-07-13T09:46:29;6.8;;;1.9;;
59653;SDS011;66556;52.008;5.432;2023-07-13T09:48:10;7.7;;;1.9;;
59653;SDS011;66556;52.008;5.432;2023-07-13T09:49:48;6.7;;;2.0;;
59653;SDS011;66556;52.008;5.432;2023-07-13T09:51:31;7.5;;;2.21;;
59653;SDS011;66556;52.008;5.432;2023-07-13T09:54:49;7.3;;;2.31;;
59653;SDS011;66556;52.008;5.432;2023-07-13T09:56:28;6.0;;;2.31;;
59653;SDS011;66556;52.008;5.432;2023-07-13T09:58:08;8.1;;;2.6;;
59653;SDS011;66556;52.008;5.432;2023-07-13T09:59:49;5.9;;;2.1;;
59653;SDS011;66556;52.008;5.432;2023-07-13T10:03:15;8.0;;;2.1;;
59653;SDS011;66556;52.008;5.432;2023-07-13T10:04:56;6.7;;;2.6;;
59653;SDS011;66556;52.008;5.432;2023-07-13T10:06:34;7.1;;;2.21;;
59653;SDS011;66556;52.008;5.432;2023-07-13T10:08:18;6.7;;;2.0;;
59653;SDS011;66556;52.008;5.432;2023-07-13T10:11:37;5.3;;;1.8;;
59653;SDS011;66556;52.008;5.432;2023-07-13T10:13:25;5.8;;;1.8;;
59653;SDS011;66556;52.008;5.432;2023-07-13T10:15:13;4.61;;;1.6;;
59653;SDS011;66556;52.008;5.432;2023-07-13T10:16:57;5.5;;;1.7;;
59653;SDS011;66556;52.008;5.432;2023-07-13T10:18:38;5.11;;;1.6;;
59653;SDS011;66556;52.008;5.432;2023-07-13T10:21:58;6.3;;;1.5;;
59653;SDS011;66556;52.008;5.432;2023-07-13T10:23:37;4.5;;;1.5;;
59653;SDS011;66556;52.008;5.432;2023-07-13T10:25:15;4.0;;;1.6;;
59653;SDS011;66556;52.008;5.432;2023-07-13T10:28:51;6.5;;;1.9;;
59653;SDS011;66556;52.008;5.432;2023-07-13T10:30:31;4.91;;;1.4;;
59653;SDS011;66556;52.008;5.432;2023-07-13T10:32:14;4.8;;;1.4;;
59653;SDS011;66556;52.008;5.432;2023-07-13T10:33:50;3.8;;;1.5;;
59653;SDS011;66556;52.008;5.432;2023-07-13T10:35:28;4.3;;;1.7;;
59653;SDS011;66556;52.008;5.432;2023-07-13T10:38:52;5.5;;;1.7;;
59653;SDS011;66556;52.008;5.432;2023-07-13T10:40:34;3.6;;;1.3;;
59653;SDS011;66556;52.008;5.432;2023-07-13T10:42:14;7.1;;;2.21;;
59653;SDS011;66556;52.008;5.432;2023-07-13T10:44:11;5.3;;;1.9;;
59653;SDS011;66556;52.008;5.432;2023-07-13T10:45:55;5.8;;;2.21;;
59653;SDS011;66556;52.008;5.432;2023-07-13T10:49:09;7.7;;;2.6;;
59653;SDS011;66556;52.008;5.432;2023-07-13T10:50:49;7.0;;;2.1;;
59653;SDS011;66556;52.008;5.432;2023-07-13T10:52:45;4.8;;;1.7;;
59653;SDS011;66556;52.008;5.432;2023-07-13T10:54:26;5.9;;;1.8;;
59653;SDS011;66556;52.008;5.432;2023-07-13T10:58:00;4.2;;;1.6;;
59653;SDS011;66556;52.008;5.432;2023-07-13T10:59:38;4.61;;;1.9;;
59653;SDS011;66556;52.008;5.432;2023-07-13T11:01:15;5.7;;;2.1;;
59653;SDS011;66556;52.008;5.432;2023-07-13T11:02:56;5.7;;;2.1;;
59653;SDS011;66556;52.008;5.432;2023-07-13T11:06:29;3.7;;;1.5;;
59653;SDS011;66556;52.008;5.432;2023-07-13T11:08:13;3.1;;;1.6;;
59653;SDS011;66556;52.008;5.432;2023-07-13T11:09:56;3.3;;;1.7;;
59653;SDS011;66556;52.008;5.432;2023-07-13T11:11:36;3.9;;;1.5;;
59653;SDS011;66556;52.008;5.432;2023-07-13T11:13:35;4.5;;;1.8;;
59653;SDS011;66556;52.008;5.432;2023-07-13T11:15:32;6.2;;;1.8;;
59653;SDS011;66556;52.008;5.432;2023-07-13T11:17:25;5.9;;;1.7;;
59653;SDS011;66556;52.008;5.432;2023-07-13T11:21:17;6.3;;;1.9;;
59653;SDS011;66556;52.008;5.432;2023-07-13T11:23:06;3.9;;;1.6;;
59653;SDS011;66556;52.008;5.432;2023-07-13T11:24:58;5.3;;;2.0;;
59653;SDS011;66556;52.008;5.432;2023-07-13T11:26:39;5.2;;;2.0;;
59653;SDS011;66556;52.008;5.432;2023-07-13T11:28:18;4.8;;;1.8;;
59653;SDS011;66556;52.008;5.432;2023-07-13T11:30:08;6.6;;;1.8;;
59653;SDS011;66556;52.008;5.432;2023-07-13T11:32:01;5.0;;;1.8;;
59653;SDS011;66556;52.008;5.432;2023-07-13T11:33:59;5.7;;;1.9;;
59653;SDS011;66556;52.008;5.432;2023-07-13T11:37:20;6.1;;;1.7;;
59653;SDS011;66556;52.008;5.432;2023-07-13T11:39:01;4.41;;;1.7;;
59653;SDS011;66556;52.008;5.432;2023-07-13T11:40:41;4.8;;;1.8;;
59653;SDS011;66556;52.008;5.432;2023-07-13T11:42:20;4.2;;;1.8;;
59653;SDS011;66556;52.008;5.432;2023-07-13T11:45:43;4.5;;;1.7;;
59653;SDS011;66556;52.008;5.432;2023-07-13T11:47:21;6.6;;;1.8;;
59653;SDS011;66556;52.008;5.432;2023-07-13T11:48:59;5.4;;;1.9;;
59653;SDS011;66556;52.008;5.432;2023-07-13T11:52:11;6.4;;;2.1;;
59653;SDS011;66556;52.008;5.432;2023-07-13T11:53:51;6.4;;;2.1;;
59653;SDS011;66556;52.008;5.432;2023-07-13T11:55:29;5.4;;;2.0;;
59653;SDS011;66556;52.008;5.432;2023-07-13T11:57:06;4.91;;;2.0;;
59653;SDS011;66556;52.008;5.432;2023-07-13T11:59:03;4.91;;;2.0;;
59653;SDS011;66556;52.008;5.432;2023-07-13T12:02:22;4.91;;;1.6;;
59653;SDS011;66556;52.008;5.432;2023-07-13T12:04:06;4.5;;;1.6;;
59653;SDS011;66556;52.008;5.432;2023-07-13T12:05:56;3.8;;;1.5;;
59653;SDS011;66556;52.008;5.432;2023-07-13T12:07:35;3.3;;;1.4;;
59653;SDS011;66556;52.008;5.432;2023-07-13T12:10:59;4.61;;;1.4;;
59653;SDS011;66556;52.008;5.432;2023-07-13T12:12:40;3.7;;;1.5;;
59653;SDS011;66556;52.008;5.432;2023-07-13T12:14:24;7.1;;;1.7;;
59653;SDS011;66556;52.008;5.432;2023-07-13T12:16:00;4.61;;;1.6;;
59653;SDS011;66556;52.008;5.432;2023-07-13T12:19:15;2.7;;;1.2;;
59653;SDS011;66556;52.008;5.432;2023-07-13T12:22:34;3.2;;;1.3;;
59653;SDS011;66556;52.008;5.432;2023-07-13T12:24:13;2.7;;;1.5;;
59653;SDS011;66556;52.008;5.432;2023-07-13T12:25:52;3.6;;;1.7;;
59653;SDS011;66556;52.008;5.432;2023-07-13T12:27:29;2.31;;;1.4;;
59653;SDS011;66556;52.008;5.432;2023-07-13T12:30:43;4.8;;;1.9;;
59653;SDS011;66556;52.008;5.432;2023-07-13T12:32:25;4.8;;;1.9;;
59653;SDS011;66556;52.008;5.432;2023-07-13T12:34:03;6.0;;;1.7;;
59653;SDS011;66556;52.008;5.432;2023-07-13T12:37:25;4.7;;;2.0;;
59653;SDS011;66556;52.008;5.432;2023-07-13T12:39:03;4.1;;;1.8;;
59653;SDS011;66556;52.008;5.432;2023-07-13T12:40:49;4.8;;;1.8;;
59653;SDS011;66556;52.008;5.432;2023-07-13T12:42:28;7.2;;;2.0;;
59653;SDS011;66556;52.008;5.432;2023-07-13T12:45:55;5.6;;;2.1;;
59653;SDS011;66556;52.008;5.432;2023-07-13T12:47:39;3.3;;;1.7;;
59653;SDS011;66556;52.008;5.432;2023-07-13T12:49:17;3.5;;;1.7;;
59653;SDS011;66556;52.008;5.432;2023-07-13T12:51:00;4.2;;;1.6;;
59653;SDS011;66556;52.008;5.432;2023-07-13T12:52:37;2.6;;;1.3;;
59653;SDS011;66556;52.008;5.432;2023-07-13T12:55:54;3.9;;;1.4;;
59653;SDS011;66556;52.008;5.432;2023-07-13T12:57:38;3.1;;;1.5;;
59653;SDS011;66556;52.008;5.432;2023-07-13T12:59:17;3.3;;;1.6;;
59653;SDS011;66556;52.008;5.432;2023-07-13T13:00:57;4.2;;;1.6;;
59653;SDS011;66556;52.008;5.432;2023-07-13T13:04:13;3.2;;;1.6;;